sensor_id;sensor_type;location;lat;lon;timestamp;pressure;altitude;pressure_sealevel;temperature;humidity
18500;BME280;9379;52.134;11.576;2022-11-15T00:01:34;100701.44;;;9.02;96.17
18500;BME280;9379;52.134;11.576;2022-11-15T00:04:02;100710.13;;;9.04;95.56
18500;BME280;9379;52.134;11.576;2022-11-15T00:06:31;100704.09;;;8.91;96.34
18500;BME280;9379;52.134;11.576;2022-11-15T00:08:58;100712.44;;;8.86;96.92
18500;BME280;9379;52.134;11.576;2022-11-15T00:11:25;100695.31;;;8.90;96.75
18500;BME280;9379;52.134;11.576;2022-11-15T00:13:55;100694.59;;;8.88;96.63
18500;BME280;9379;52.134;11.576;2022-11-15T00:16:22;100702.66;;;8.53;97.69
18500;BME280;9379;52.134;11.576;2022-11-15T00:18:49;100696.53;;;8.75;97.51
18500;BME280;9379;52.134;11.576;2022-11-15T00:21:17;100698.78;;;9.13;95.49
18500;BME280;9379;52.134;11.576;2022-11-15T00:23:45;100695.38;;;9.22;95.14
18500;BME280;9379;52.134;11.576;2022-11-15T00:26:13;100697.63;;;8.95;96.33
18500;BME280;9379;52.134;11.576;2022-11-15T00:28:42;100703.63;;;8.86;96.77
18500;BME280;9379;52.134;11.576;2022-11-15T00:31:11;100704.72;;;8.83;96.77
18500;BME280;9379;52.134;11.576;2022-11-15T00:47:22;100701.97;;;8.73;97.90
18500;BME280;9379;52.134;11.576;2022-11-15T00:49:49;100680.19;;;8.59;98.05
18500;BME280;9379;52.134;11.576;2022-11-15T00:52:15;100692.31;;;8.61;97.42
18500;BME280;9379;52.134;11.576;2022-11-15T00:54:42;100662.91;;;8.87;96.72
18500;BME280;9379;52.134;11.576;2022-11-15T00:57:09;100663.16;;;8.84;95.69
18500;BME280;9379;52.134;11.576;2022-11-15T00:59:36;100681.13;;;8.80;96.08
18500;BME280;9379;52.134;11.576;2022-11-15T01:02:03;100686.19;;;8.72;97.11
18500;BME280;9379;52.134;11.576;2022-11-15T01:04:31;100675.13;;;9.21;95.46
18500;BME280;9379;52.134;11.576;2022-11-15T01:06:58;100685.78;;;8.99;95.48
18500;BME280;9379;52.134;11.576;2022-11-15T01:09:53;100686.53;;;8.56;97.72
18500;BME280;9379;52.134;11.576;2022-11-15T01:12:19;100677.16;;;8.63;97.95
18500;BME280;9379;52.134;11.576;2022-11-15T01:14:46;100677.84;;;8.76;97.34
18500;BME280;9379;52.134;11.576;2022-11-15T01:17:13;100658.13;;;8.47;98.91
18500;BME280;9379;52.134;11.576;2022-11-15T01:19:41;100677.03;;;8.54;98.44
18500;BME280;9379;52.134;11.576;2022-11-15T01:22:08;100671.72;;;8.65;98.20
18500;BME280;9379;52.134;11.576;2022-11-15T01:24:35;100668.50;;;8.61;97.76
18500;BME280;9379;52.134;11.576;2022-11-15T01:27:01;100668.09;;;8.77;97.88
18500;BME280;9379;52.134;11.576;2022-11-15T01:29:28;100643.78;;;8.72;96.93
18500;BME280;9379;52.134;11.576;2022-11-15T01:31:55;100666.16;;;8.79;97.30
18500;BME280;9379;52.134;11.576;2022-11-15T01:34:22;100659.06;;;8.80;96.83
18500;BME280;9379;52.134;11.576;2022-11-15T01:36:50;100658.19;;;8.90;97.09
18500;BME280;9379;52.134;11.576;2022-11-15T01:39:17;100658.09;;;9.03;96.68
18500;BME280;9379;52.134;11.576;2022-11-15T01:41:44;100661.81;;;8.89;96.90
18500;BME280;9379;52.134;11.576;2022-11-15T01:44:38;100663.31;;;8.71;97.61
18500;BME280;9379;52.134;11.576;2022-11-15T01:47:08;100658.25;;;8.57;98.09
18500;BME280;9379;52.134;11.576;2022-11-15T01:49:38;100658.09;;;9.03;96.58
18500;BME280;9379;52.134;11.576;2022-11-15T01:52:09;100659.63;;;9.05;96.24
18500;BME280;9379;52.134;11.576;2022-11-15T01:54:37;100654.78;;;9.11;95.80
18500;BME280;9379;52.134;11.576;2022-11-15T01:57:06;100636.31;;;8.77;96.60
18500;BME280;9379;52.134;11.576;2022-11-15T01:59:35;100648.75;;;9.52;94.01
18500;BME280;9379;52.134;11.576;2022-11-15T02:02:03;100639.91;;;8.87;96.07
18500;BME280;9379;52.134;11.576;2022-11-15T02:04:32;100649.38;;;9.01;96.66
18500;BME280;9379;52.134;11.576;2022-11-15T02:06:59;100645.31;;;8.97;96.18
18500;BME280;9379;52.134;11.576;2022-11-15T02:09:29;100636.66;;;8.84;96.38
18500;BME280;9379;52.134;11.576;2022-11-15T02:11:58;100633.03;;;8.96;96.00
18500;BME280;9379;52.134;11.576;2022-11-15T02:14:27;100625.41;;;9.02;95.89
18500;BME280;9379;52.134;11.576;2022-11-15T02:16:59;100640.97;;;9.39;94.63
18500;BME280;9379;52.134;11.576;2022-11-15T02:20:01;100637.13;;;9.32;94.38
18500;BME280;9379;52.134;11.576;2022-11-15T02:22:43;100640.00;;;9.40;94.66
18500;BME280;9379;52.134;11.576;2022-11-15T02:25:30;100640.59;;;9.00;96.15
18500;BME280;9379;52.134;11.576;2022-11-15T02:28:27;100635.75;;;9.17;95.55
18500;BME280;9379;52.134;11.576;2022-11-15T02:31:07;100631.31;;;9.06;95.63
18500;BME280;9379;52.134;11.576;2022-11-15T02:33:42;100627.59;;;8.97;96.35
18500;BME280;9379;52.134;11.576;2022-11-15T02:36:15;100621.31;;;9.10;96.35
18500;BME280;9379;52.134;11.576;2022-11-15T02:44:53;100587.31;;;9.35;93.42
18500;BME280;9379;52.134;11.576;2022-11-15T02:47:25;100578.78;;;9.32;93.71
18500;BME280;9379;52.134;11.576;2022-11-15T02:49:56;100589.22;;;9.45;92.66
18500;BME280;9379;52.134;11.576;2022-11-15T02:52:25;100586.81;;;9.42;92.47
18500;BME280;9379;52.134;11.576;2022-11-15T02:54:53;100590.56;;;9.81;91.66
18500;BME280;9379;52.134;11.576;2022-11-15T02:57:29;100581.97;;;9.88;90.83
18500;BME280;9379;52.134;11.576;2022-11-15T03:00:05;100603.25;;;9.77;91.22
18500;BME280;9379;52.134;11.576;2022-11-15T03:02:43;100583.91;;;9.65;90.83
18500;BME280;9379;52.134;11.576;2022-11-15T03:05:19;100603.91;;;9.90;90.97
18500;BME280;9379;52.134;11.576;2022-11-15T03:07:54;100609.53;;;9.55;92.14
18500;BME280;9379;52.134;11.576;2022-11-15T03:10:27;100608.31;;;9.59;92.72
18500;BME280;9379;52.134;11.576;2022-11-15T03:13:02;100610.84;;;9.61;91.93
18500;BME280;9379;52.134;11.576;2022-11-15T03:15:37;100604.25;;;9.76;91.82
18500;BME280;9379;52.134;11.576;2022-11-15T03:18:12;100607.47;;;9.59;92.03
18500;BME280;9379;52.134;11.576;2022-11-15T03:20:40;100605.13;;;9.45;93.18
18500;BME280;9379;52.134;11.576;2022-11-15T03:23:10;100584.38;;;9.50;93.18
18500;BME280;9379;52.134;11.576;2022-11-15T03:25:41;100587.66;;;9.42;92.98
18500;BME280;9379;52.134;11.576;2022-11-15T03:28:16;100602.16;;;9.38;93.36
18500;BME280;9379;52.134;11.576;2022-11-15T03:30:44;100597.66;;;9.18;93.88
18500;BME280;9379;52.134;11.576;2022-11-15T03:33:14;100575.41;;;8.55;96.16
18500;BME280;9379;52.134;11.576;2022-11-15T03:35:44;100595.16;;;8.51;97.90
18500;BME280;9379;52.134;11.576;2022-11-15T03:38:15;100567.72;;;8.52;97.80
18500;BME280;9379;52.134;11.576;2022-11-15T03:40:47;100577.47;;;8.51;97.69
18500;BME280;9379;52.134;11.576;2022-11-15T03:43:24;100583.16;;;8.35;98.74
18500;BME280;9379;52.134;11.576;2022-11-15T03:45:59;100586.47;;;8.71;98.31
18500;BME280;9379;52.134;11.576;2022-11-15T03:48:34;100611.75;;;8.75;98.75
18500;BME280;9379;52.134;11.576;2022-11-15T03:51:03;100572.13;;;8.73;97.63
18500;BME280;9379;52.134;11.576;2022-11-15T03:53:31;100598.59;;;8.85;98.81
18500;BME280;9379;52.134;11.576;2022-11-15T03:55:58;100588.59;;;8.77;97.68
18500;BME280;9379;52.134;11.576;2022-11-15T03:58:25;100579.72;;;8.67;98.72
18500;BME280;9379;52.134;11.576;2022-11-15T04:00:51;100588.03;;;8.73;98.81
18500;BME280;9379;52.134;11.576;2022-11-15T04:03:18;100578.16;;;8.64;98.40
18500;BME280;9379;52.134;11.576;2022-11-15T04:05:47;100562.47;;;8.84;97.39
18500;BME280;9379;52.134;11.576;2022-11-15T04:08:14;100555.91;;;8.44;99.11
18500;BME280;9379;52.134;11.576;2022-11-15T04:10:41;100569.50;;;8.62;98.60
18500;BME280;9379;52.134;11.576;2022-11-15T04:13:08;100567.50;;;8.87;98.08
18500;BME280;9379;52.134;11.576;2022-11-15T04:15:35;100552.25;;;8.68;98.78
18500;BME280;9379;52.134;11.576;2022-11-15T04:18:02;100578.28;;;8.74;98.86
18500;BME280;9379;52.134;11.576;2022-11-15T04:20:30;100555.25;;;8.74;98.12
18500;BME280;9379;52.134;11.576;2022-11-15T04:23:20;100562.69;;;8.92;98.04
18500;BME280;9379;52.134;11.576;2022-11-15T04:26:21;100543.66;;;9.19;95.40
18500;BME280;9379;52.134;11.576;2022-11-15T04:28:50;100546.88;;;8.90;96.00
18500;BME280;9379;52.134;11.576;2022-11-15T04:31:34;100547.44;;;8.73;97.87
18500;BME280;9379;52.134;11.576;2022-11-15T04:34:04;100552.81;;;8.39;99.19
18500;BME280;9379;52.134;11.576;2022-11-15T04:36:31;100548.06;;;8.65;98.11
18500;BME280;9379;52.134;11.576;2022-11-15T04:39:16;100577.28;;;8.86;98.20
18500;BME280;9379;52.134;11.576;2022-11-15T04:41:43;100572.59;;;8.78;98.68
18500;BME280;9379;52.134;11.576;2022-11-15T04:44:10;100574.91;;;8.72;99.02
18500;BME280;9379;52.134;11.576;2022-11-15T04:46:38;100547.44;;;8.73;98.21
18500;BME280;9379;52.134;11.576;2022-11-15T04:49:05;100536.53;;;8.87;97.17
18500;BME280;9379;52.134;11.576;2022-11-15T04:51:38;100557.59;;;9.00;97.29
18500;BME280;9379;52.134;11.576;2022-11-15T04:54:06;100539.22;;;8.76;97.32
18500;BME280;9379;52.134;11.576;2022-11-15T04:56:35;100539.63;;;8.71;98.05
18500;BME280;9379;52.134;11.576;2022-11-15T04:59:02;100532.88;;;8.67;98.24
18500;BME280;9379;52.134;11.576;2022-11-15T05:01:29;100571.31;;;8.51;99.20
18500;BME280;9379;52.134;11.576;2022-11-15T05:03:57;100541.25;;;8.40;99.54
18500;BME280;9379;52.134;11.576;2022-11-15T05:06:52;100533.16;;;8.19;100.00
18500;BME280;9379;52.134;11.576;2022-11-15T05:09:20;100544.31;;;8.68;98.46
18500;BME280;9379;52.134;11.576;2022-11-15T05:11:49;100578.00;;;8.77;97.77
18500;BME280;9379;52.134;11.576;2022-11-15T05:14:19;100545.56;;;8.41;98.03
18500;BME280;9379;52.134;11.576;2022-11-15T05:16:48;100533.88;;;8.55;98.48
18500;BME280;9379;52.134;11.576;2022-11-15T05:19:18;100540.75;;;8.58;97.27
18500;BME280;9379;52.134;11.576;2022-11-15T05:21:45;100530.19;;;8.35;98.71
18500;BME280;9379;52.134;11.576;2022-11-15T05:24:13;100554.69;;;8.71;97.35
18500;BME280;9379;52.134;11.576;2022-11-15T05:26:41;100542.47;;;8.80;97.40
18500;BME280;9379;52.134;11.576;2022-11-15T05:29:10;100535.41;;;9.01;95.91
18500;BME280;9379;52.134;11.576;2022-11-15T05:31:39;100541.03;;;9.40;93.88
18500;BME280;9379;52.134;11.576;2022-11-15T05:34:07;100527.41;;;9.33;93.56
18500;BME280;9379;52.134;11.576;2022-11-15T05:36:36;100528.41;;;9.00;94.11
18500;BME280;9379;52.134;11.576;2022-11-15T05:39:06;100524.44;;;8.73;97.04
18500;BME280;9379;52.134;11.576;2022-11-15T05:41:35;100525.88;;;9.30;93.68
18500;BME280;9379;52.134;11.576;2022-11-15T05:44:06;100529.25;;;9.32;93.84
18500;BME280;9379;52.134;11.576;2022-11-15T05:46:37;100560.41;;;8.87;97.03
18500;BME280;9379;52.134;11.576;2022-11-15T05:49:07;100529.44;;;8.88;96.69
18500;BME280;9379;52.134;11.576;2022-11-15T05:51:36;100529.91;;;8.61;98.13
18500;BME280;9379;52.134;11.576;2022-11-15T05:54:03;100530.97;;;8.69;98.00
18500;BME280;9379;52.134;11.576;2022-11-15T05:56:31;100531.38;;;8.86;96.97
18500;BME280;9379;52.134;11.576;2022-11-15T05:59:01;100537.06;;;8.81;97.81
18500;BME280;9379;52.134;11.576;2022-11-15T06:01:29;100532.63;;;9.02;96.13
18500;BME280;9379;52.134;11.576;2022-11-15T06:04:00;100548.38;;;9.36;95.36
18500;BME280;9379;52.134;11.576;2022-11-15T06:06:28;100567.00;;;9.25;95.35
18500;BME280;9379;52.134;11.576;2022-11-15T06:08:56;100561.72;;;8.93;96.96
18500;BME280;9379;52.134;11.576;2022-11-15T06:11:23;100535.53;;;8.99;96.93
18500;BME280;9379;52.134;11.576;2022-11-15T06:13:50;100549.69;;;8.77;98.29
18500;BME280;9379;52.134;11.576;2022-11-15T06:16:19;100549.28;;;8.61;98.04
18500;BME280;9379;52.134;11.576;2022-11-15T06:18:49;100543.88;;;8.52;98.44
18500;BME280;9379;52.134;11.576;2022-11-15T06:21:19;100544.13;;;8.92;97.61
18500;BME280;9379;52.134;11.576;2022-11-15T06:23:46;100569.16;;;9.31;95.70
18500;BME280;9379;52.134;11.576;2022-11-15T06:26:14;100550.06;;;9.37;94.83
18500;BME280;9379;52.134;11.576;2022-11-15T06:28:41;100558.75;;;9.39;93.78
18500;BME280;9379;52.134;11.576;2022-11-15T06:31:10;100557.75;;;9.19;95.30
18500;BME280;9379;52.134;11.576;2022-11-15T06:33:37;100564.00;;;9.50;93.97
18500;BME280;9379;52.134;11.576;2022-11-15T06:36:07;100553.94;;;9.75;92.23
18500;BME280;9379;52.134;11.576;2022-11-15T06:38:36;100567.16;;;9.65;91.91
18500;BME280;9379;52.134;11.576;2022-11-15T06:41:07;100579.44;;;9.66;92.03
18500;BME280;9379;52.134;11.576;2022-11-15T06:43:35;100579.78;;;9.52;92.17
18500;BME280;9379;52.134;11.576;2022-11-15T06:46:06;100583.41;;;9.51;92.59
18500;BME280;9379;52.134;11.576;2022-11-15T06:48:34;100604.94;;;9.57;92.50
18500;BME280;9379;52.134;11.576;2022-11-15T06:51:02;100584.34;;;8.97;94.67
18500;BME280;9379;52.134;11.576;2022-11-15T06:53:33;100620.00;;;9.04;96.75
18500;BME280;9379;52.134;11.576;2022-11-15T06:56:03;100592.13;;;8.55;97.79
18500;BME280;9379;52.134;11.576;2022-11-15T06:58:31;100600.47;;;8.39;99.01
18500;BME280;9379;52.134;11.576;2022-11-15T07:00:59;100601.31;;;8.51;98.48
18500;BME280;9379;52.134;11.576;2022-11-15T07:03:27;100611.88;;;8.73;99.67
18500;BME280;9379;52.134;11.576;2022-11-15T07:05:55;100594.53;;;8.81;98.80
18500;BME280;9379;52.134;11.576;2022-11-15T07:08:24;100598.91;;;9.34;95.69
18500;BME280;9379;52.134;11.576;2022-11-15T07:10:51;100597.84;;;9.26;95.58
18500;BME280;9379;52.134;11.576;2022-11-15T07:13:24;100620.50;;;9.30;95.15
18500;BME280;9379;52.134;11.576;2022-11-15T07:15:51;100600.09;;;9.62;94.28
18500;BME280;9379;52.134;11.576;2022-11-15T07:18:19;100609.16;;;9.81;92.92
18500;BME280;9379;52.134;11.576;2022-11-15T07:20:49;100607.25;;;9.72;93.23
18500;BME280;9379;52.134;11.576;2022-11-15T07:23:16;100608.88;;;10.05;92.03
18500;BME280;9379;52.134;11.576;2022-11-15T07:25:43;100637.38;;;10.03;92.46
18500;BME280;9379;52.134;11.576;2022-11-15T07:28:11;100616.06;;;9.72;93.29
18500;BME280;9379;52.134;11.576;2022-11-15T07:30:39;100637.50;;;10.01;92.90
18500;BME280;9379;52.134;11.576;2022-11-15T07:33:06;100641.63;;;10.15;92.51
18500;BME280;9379;52.134;11.576;2022-11-15T07:35:33;100640.59;;;10.27;91.98
18500;BME280;9379;52.134;11.576;2022-11-15T07:38:01;100646.50;;;10.31;91.97
18500;BME280;9379;52.134;11.576;2022-11-15T07:40:30;100644.41;;;10.13;92.52
18500;BME280;9379;52.134;11.576;2022-11-15T07:43:01;100644.06;;;9.97;93.79
18500;BME280;9379;52.134;11.576;2022-11-15T07:45:28;100640.59;;;10.27;92.37
18500;BME280;9379;52.134;11.576;2022-11-15T07:47:57;100643.72;;;10.32;92.15
18500;BME280;9379;52.134;11.576;2022-11-15T07:50:24;100632.91;;;10.24;92.03
18500;BME280;9379;52.134;11.576;2022-11-15T07:52:54;100634.63;;;10.35;92.76
18500;BME280;9379;52.134;11.576;2022-11-15T07:55:22;100628.44;;;10.25;93.42
18500;BME280;9379;52.134;11.576;2022-11-15T07:57:49;100636.50;;;10.44;92.47
18500;BME280;9379;52.134;11.576;2022-11-15T08:00:17;100640.13;;;10.43;92.23
18500;BME280;9379;52.134;11.576;2022-11-15T08:02:44;100633.31;;;9.99;94.64
18500;BME280;9379;52.134;11.576;2022-11-15T08:05:13;100636.78;;;10.50;93.20
18500;BME280;9379;52.134;11.576;2022-11-15T08:07:40;100632.63;;;10.27;93.45
18500;BME280;9379;52.134;11.576;2022-11-15T08:10:07;100621.03;;;10.28;93.24
18500;BME280;9379;52.134;11.576;2022-11-15T08:12:34;100624.81;;;10.56;93.01
18500;BME280;9379;52.134;11.576;2022-11-15T08:15:01;100627.59;;;10.24;93.29
18500;BME280;9379;52.134;11.576;2022-11-15T08:17:28;100629.31;;;10.35;94.13
18500;BME280;9379;52.134;11.576;2022-11-15T08:19:58;100630.91;;;9.96;95.03
18500;BME280;9379;52.134;11.576;2022-11-15T08:22:26;100607.25;;;9.72;96.23
18500;BME280;9379;52.134;11.576;2022-11-15T08:24:53;100618.38;;;10.28;94.84
18500;BME280;9379;52.134;11.576;2022-11-15T08:27:20;100617.03;;;10.13;94.39
18500;BME280;9379;52.134;11.576;2022-11-15T08:29:48;100607.25;;;9.92;95.73
18500;BME280;9379;52.134;11.576;2022-11-15T08:32:16;100611.22;;;9.77;95.94
18500;BME280;9379;52.134;11.576;2022-11-15T08:34:43;100611.94;;;9.79;96.41
18500;BME280;9379;52.134;11.576;2022-11-15T08:37:10;100611.88;;;9.90;96.12
18500;BME280;9379;52.134;11.576;2022-11-15T08:39:38;100606.69;;;9.89;96.32
18500;BME280;9379;52.134;11.576;2022-11-15T08:42:05;100604.66;;;10.23;95.83
18500;BME280;9379;52.134;11.576;2022-11-15T08:44:32;100591.78;;;10.59;93.72
18500;BME280;9379;52.134;11.576;2022-11-15T08:46:58;100609.09;;;10.53;94.20
18500;BME280;9379;52.134;11.576;2022-11-15T08:49:25;100605.31;;;11.05;92.28
18500;BME280;9379;52.134;11.576;2022-11-15T08:51:52;100602.47;;;10.78;92.59
18500;BME280;9379;52.134;11.576;2022-11-15T08:54:19;100603.38;;;11.36;91.06
18500;BME280;9379;52.134;11.576;2022-11-15T08:56:47;100604.41;;;10.76;92.76
18500;BME280;9379;52.134;11.576;2022-11-15T08:59:14;100591.31;;;10.94;92.64
18500;BME280;9379;52.134;11.576;2022-11-15T09:01:41;100595.41;;;11.36;90.82
18500;BME280;9379;52.134;11.576;2022-11-15T09:04:08;100597.44;;;10.85;92.55
18500;BME280;9379;52.134;11.576;2022-11-15T09:06:34;100596.56;;;10.65;93.49
18500;BME280;9379;52.134;11.576;2022-11-15T09:09:02;100603.00;;;10.72;93.46
18500;BME280;9379;52.134;11.576;2022-11-15T09:11:29;100599.16;;;11.05;92.89
18500;BME280;9379;52.134;11.576;2022-11-15T09:13:57;100595.41;;;11.36;92.19
18500;BME280;9379;52.134;11.576;2022-11-15T09:16:24;100566.81;;;11.58;90.60
18500;BME280;9379;52.134;11.576;2022-11-15T09:18:51;100578.03;;;11.42;91.19
18500;BME280;9379;52.134;11.576;2022-11-15T09:21:18;100584.88;;;11.54;91.45
18500;BME280;9379;52.134;11.576;2022-11-15T09:23:45;100579.00;;;11.60;90.67
18500;BME280;9379;52.134;11.576;2022-11-15T09:26:12;100577.03;;;11.43;91.03
18500;BME280;9379;52.134;11.576;2022-11-15T09:28:39;100584.41;;;11.68;91.49
18500;BME280;9379;52.134;11.576;2022-11-15T09:31:08;100560.50;;;11.59;90.86
18500;BME280;9379;52.134;11.576;2022-11-15T09:33:35;100574.47;;;11.90;90.69
18500;BME280;9379;52.134;11.576;2022-11-15T09:36:04;100578.56;;;11.84;90.37
18500;BME280;9379;52.134;11.576;2022-11-15T09:38:32;100565.44;;;12.10;90.69
18500;BME280;9379;52.134;11.576;2022-11-15T09:41:20;100566.38;;;12.19;90.36
18500;BME280;9379;52.134;11.576;2022-11-15T09:43:56;100573.25;;;12.21;89.91
18500;BME280;9379;52.134;11.576;2022-11-15T09:46:39;100557.16;;;12.04;90.30
18500;BME280;9379;52.134;11.576;2022-11-15T09:49:08;100557.25;;;12.21;89.93
18500;BME280;9379;52.134;11.576;2022-11-15T09:51:37;100560.31;;;12.54;89.14
18500;BME280;9379;52.134;11.576;2022-11-15T09:54:19;100568.91;;;12.75;88.33
18500;BME280;9379;52.134;11.576;2022-11-15T09:56:49;100565.25;;;12.94;87.88
18500;BME280;9379;52.134;11.576;2022-11-15T09:59:58;100565.41;;;13.10;88.02
18500;BME280;9379;52.134;11.576;2022-11-15T10:02:47;100556.75;;;13.08;86.92
18500;BME280;9379;52.134;11.576;2022-11-15T10:05:20;100549.91;;;13.24;86.17
18500;BME280;9379;52.134;11.576;2022-11-15T10:07:54;100545.13;;;13.18;86.36
18500;BME280;9379;52.134;11.576;2022-11-15T10:10:29;100553.47;;;13.32;86.78
18500;BME280;9379;52.134;11.576;2022-11-15T10:12:57;100549.25;;;13.30;86.76
18500;BME280;9379;52.134;11.576;2022-11-15T10:15:25;100552.69;;;13.40;86.45
18500;BME280;9379;52.134;11.576;2022-11-15T10:18:07;100548.94;;;13.51;86.17
18500;BME280;9379;52.134;11.576;2022-11-15T10:20:44;100542.09;;;13.48;86.06
18500;BME280;9379;52.134;11.576;2022-11-15T10:23:14;100535.31;;;13.62;86.20
18500;BME280;9379;52.134;11.576;2022-11-15T10:25:42;100532.22;;;13.66;86.09
18500;BME280;9379;52.134;11.576;2022-11-15T10:28:13;100519.63;;;13.85;85.01
18500;BME280;9379;52.134;11.576;2022-11-15T10:30:42;100525.69;;;13.95;84.38
18500;BME280;9379;52.134;11.576;2022-11-15T10:33:20;100511.22;;;14.06;84.59
18500;BME280;9379;52.134;11.576;2022-11-15T10:38:53;100506.47;;;13.91;84.55
18500;BME280;9379;52.134;11.576;2022-11-15T10:41:22;100511.59;;;14.19;84.99
18500;BME280;9379;52.134;11.576;2022-11-15T10:44:18;100502.41;;;14.21;85.33
18500;BME280;9379;52.134;11.576;2022-11-15T10:46:47;100505.47;;;14.35;83.77
18500;BME280;9379;52.134;11.576;2022-11-15T10:49:18;100503.34;;;14.04;84.65
18500;BME280;9379;52.134;11.576;2022-11-15T10:51:47;100496.34;;;14.03;85.80
18500;BME280;9379;52.134;11.576;2022-11-15T10:54:19;100491.34;;;14.08;84.78
18500;BME280;9379;52.134;11.576;2022-11-15T10:56:50;100494.78;;;14.26;85.25
18500;BME280;9379;52.134;11.576;2022-11-15T10:59:23;100485.19;;;14.58;83.80
18500;BME280;9379;52.134;11.576;2022-11-15T11:01:51;100484.41;;;14.82;82.63
18500;BME280;9379;52.134;11.576;2022-11-15T11:04:19;100478.03;;;14.75;82.06
18500;BME280;9379;52.134;11.576;2022-11-15T11:06:48;100476.84;;;14.77;83.24
18500;BME280;9379;52.134;11.576;2022-11-15T11:09:27;100482.56;;;14.91;81.32
18500;BME280;9379;52.134;11.576;2022-11-15T11:11:55;100477.72;;;15.02;81.76
18500;BME280;9379;52.134;11.576;2022-11-15T11:14:23;100479.88;;;15.23;82.95
18500;BME280;9379;52.134;11.576;2022-11-15T11:16:54;100481.38;;;15.26;81.99
18500;BME280;9379;52.134;11.576;2022-11-15T11:19:40;100473.53;;;15.32;81.37
18500;BME280;9379;52.134;11.576;2022-11-15T11:22:18;100485.00;;;15.73;81.42
18500;BME280;9379;52.134;11.576;2022-11-15T11:24:52;100466.59;;;15.79;80.54
18500;BME280;9379;52.134;11.576;2022-11-15T11:27:31;100466.78;;;15.61;80.55
18500;BME280;9379;52.134;11.576;2022-11-15T11:30:06;100463.94;;;15.54;80.74
18500;BME280;9379;52.134;11.576;2022-11-15T11:32:46;100460.41;;;15.70;82.10
18500;BME280;9379;52.134;11.576;2022-11-15T11:35:20;100467.31;;;15.64;80.61
18500;BME280;9379;52.134;11.576;2022-11-15T11:37:51;100461.97;;;15.24;82.17
18500;BME280;9379;52.134;11.576;2022-11-15T11:40:29;100461.91;;;15.72;80.65
18500;BME280;9379;52.134;11.576;2022-11-15T11:43:00;100459.97;;;15.42;80.96
18500;BME280;9379;52.134;11.576;2022-11-15T11:45:52;100461.06;;;15.72;80.37
18500;BME280;9379;52.134;11.576;2022-11-15T11:48:30;100462.00;;;15.07;81.41
18500;BME280;9379;52.134;11.576;2022-11-15T11:51:13;100445.88;;;15.48;81.13
18500;BME280;9379;52.134;11.576;2022-11-15T11:53:44;100429.72;;;15.81;78.87
18500;BME280;9379;52.134;11.576;2022-11-15T11:56:19;100435.47;;;15.69;80.66
18500;BME280;9379;52.134;11.576;2022-11-15T11:58:48;100427.13;;;15.64;80.02
18500;BME280;9379;52.134;11.576;2022-11-15T12:01:22;100434.75;;;15.84;80.01
18500;BME280;9379;52.134;11.576;2022-11-15T12:03:54;100433.00;;;15.43;81.32
18500;BME280;9379;52.134;11.576;2022-11-15T12:06:27;100439.03;;;15.37;82.16
18500;BME280;9379;52.134;11.576;2022-11-15T12:08:59;100446.13;;;15.06;83.62
18500;BME280;9379;52.134;11.576;2022-11-15T12:11:30;100446.25;;;15.04;83.29
18500;BME280;9379;52.134;11.576;2022-11-15T12:14:02;100428.69;;;15.02;83.17
18500;BME280;9379;52.134;11.576;2022-11-15T12:16:32;100433.50;;;15.39;82.62
18500;BME280;9379;52.134;11.576;2022-11-15T12:19:01;100430.72;;;15.00;83.45
18500;BME280;9379;52.134;11.576;2022-11-15T12:21:36;100424.34;;;15.17;82.92
18500;BME280;9379;52.134;11.576;2022-11-15T12:24:08;100433.06;;;14.86;83.24
18500;BME280;9379;52.134;11.576;2022-11-15T12:26:41;100420.00;;;14.92;82.77
18500;BME280;9379;52.134;11.576;2022-11-15T12:29:15;100410.31;;;15.07;82.99
18500;BME280;9379;52.134;11.576;2022-11-15T12:31:45;100414.31;;;15.11;82.98
18500;BME280;9379;52.134;11.576;2022-11-15T12:34:35;100406.72;;;15.39;82.87
18500;BME280;9379;52.134;11.576;2022-11-15T12:37:46;100408.25;;;15.41;82.86
18500;BME280;9379;52.134;11.576;2022-11-15T12:40:23;100389.56;;;15.09;83.44
18500;BME280;9379;52.134;11.576;2022-11-15T12:45:52;100394.72;;;15.18;83.66
18500;BME280;9379;52.134;11.576;2022-11-15T12:48:45;100401.22;;;15.24;83.73
18500;BME280;9379;52.134;11.576;2022-11-15T12:51:13;100390.88;;;15.29;82.65
18500;BME280;9379;52.134;11.576;2022-11-15T12:53:41;100369.47;;;15.13;83.52
18500;BME280;9379;52.134;11.576;2022-11-15T12:56:18;100406.28;;;15.19;83.75
18500;BME280;9379;52.134;11.576;2022-11-15T12:58:48;100401.88;;;15.42;83.06
18500;BME280;9379;52.134;11.576;2022-11-15T13:04:29;100405.63;;;14.84;84.63
18500;BME280;9379;52.134;11.576;2022-11-15T13:06:59;100388.22;;;15.05;84.27
18500;BME280;9379;52.134;11.576;2022-11-15T13:09:54;100400.13;;;14.94;83.80
18500;BME280;9379;52.134;11.576;2022-11-15T13:12:51;100413.13;;;15.22;83.85
18500;BME280;9379;52.134;11.576;2022-11-15T13:15:40;100391.44;;;14.84;84.77
18500;BME280;9379;52.134;11.576;2022-11-15T13:18:32;100407.28;;;15.02;84.06
18500;BME280;9379;52.134;11.576;2022-11-15T13:21:00;100394.88;;;15.25;83.17
18500;BME280;9379;52.134;11.576;2022-11-15T13:23:52;100384.50;;;15.14;83.55
18500;BME280;9379;52.134;11.576;2022-11-15T13:26:21;100380.56;;;14.94;84.07
18500;BME280;9379;52.134;11.576;2022-11-15T13:28:49;100386.06;;;15.00;85.12
18500;BME280;9379;52.134;11.576;2022-11-15T13:31:29;100382.38;;;15.01;84.16
18500;BME280;9379;52.134;11.576;2022-11-15T13:33:59;100381.19;;;15.04;84.17
18500;BME280;9379;52.134;11.576;2022-11-15T13:36:29;100362.63;;;15.10;83.79
18500;BME280;9379;52.134;11.576;2022-11-15T13:39:00;100374.84;;;14.88;84.34
18500;BME280;9379;52.134;11.576;2022-11-15T13:41:31;100373.84;;;15.06;84.58
18500;BME280;9379;52.134;11.576;2022-11-15T13:44:00;100375.53;;;14.99;84.80
18500;BME280;9379;52.134;11.576;2022-11-15T13:46:28;100367.81;;;15.04;84.59